Time;durP1;ratioP1;P1;durP2;ratioP2;P2;SDS_P1;SDS_P2;PMS_P1;PMS_P2;Temp;Humidity;BMP_temperature;BMP_pressure;BME280_temperature;BME280_humidity;BME280_pressure;Samples;Min_cycle;Max_cycle;Signal;HPM_P1;HPM_P2
2021/04/28 06:40:14;;;;;;;6.35;3.80;;;16.80;60.00;;;;;;6308031;22;20405;-94
2021/04/28 06:56:55;;;;;;;4.80;3.30;;;16.80;56.90;;;;;;6321200;22;20376;-95
2021/04/28 07:18:15;;;;;;;7.40;2.80;;;15.30;63.40;;;;;;6349092;22;20435;-96
2021/04/28 07:20:59;;;;;;;5.80;2.80;;;16.00;64.10;;;;;;6301836;22;20926;-96
2021/04/28 07:23:27;;;;;;;4.63;2.80;;;16.40;61.80;;;;;;6322135;22;20442;-96
2021/04/28 07:25:58;;;;;;;5.53;2.50;;;15.80;59.00;;;;;;6311469;22;20390;-96
2021/04/28 07:28:28;;;;;;;4.35;2.60;;;15.60;59.30;;;;;;6283535;22;20370;-94
2021/04/28 07:30:55;;;;;;;3.90;2.50;;;16.20;59.40;;;;;;6279549;22;20919;-93
2021/04/28 07:33:22;;;;;;;6.70;2.50;;;16.40;59.50;;;;;;6279005;22;20473;-92
2021/04/28 07:35:48;;;;;;;3.22;2.33;;;16.20;61.30;;;;;;6278434;22;20386;-95
2021/04/28 07:38:15;;;;;;;3.10;2.30;;;16.30;58.40;;;;;;6279467;22;20499;-95
2021/04/28 07:40:42;;;;;;;2.88;2.13;;;16.60;58.20;;;;;;6279166;22;20388;-95
2021/04/28 07:43:08;;;;;;;2.80;2.10;;;17.00;56.00;;;;;;6281386;22;20393;-94
2021/04/28 07:45:35;;;;;;;3.88;2.20;;;16.80;57.90;;;;;;6306952;22;20390;-94
2021/04/28 07:51:49;;;;;;;4.50;2.30;;;16.50;54.70;;;;;;6305109;22;20389;-94
2021/04/28 07:54:25;;;;;;;4.28;2.28;;;15.90;57.70;;;;;;6280455;22;20386;-94
2021/04/28 07:56:59;;;;;;;5.30;2.70;;;15.70;58.20;;;;;;6278969;22;20488;-93
2021/04/28 07:59:26;;;;;;;2.85;1.95;;;15.30;59.60;;;;;;6279784;22;20383;-94
2021/04/28 08:01:53;;;;;;;3.72;2.22;;;15.20;58.20;;;;;;6279064;22;20401;-93
2021/04/28 08:04:20;;;;;;;3.20;2.00;;;14.80;59.50;;;;;;6309820;22;20459;-94
2021/04/28 08:06:48;;;;;;;6.10;2.40;;;14.70;63.10;;;;;;6313663;22;20368;-92
2021/04/28 08:09:15;;;;;;;3.60;2.40;;;15.10;61.40;;;;;;6314067;22;20381;-92
2021/04/28 08:11:42;;;;;;;3.30;2.28;;;14.50;60.10;;;;;;6318658;22;20372;-92
2021/04/28 08:14:08;;;;;;;4.40;2.40;;;14.80;62.70;;;;;;6323401;22;20377;-95
2021/04/28 08:16:35;;;;;;;4.00;2.20;;;14.70;61.30;;;;;;6321840;22;20404;-94
2021/04/28 08:19:03;;;;;;;5.18;2.60;;;15.20;59.40;;;;;;6313138;22;20731;-94
2021/04/28 08:21:30;;;;;;;2.40;2.00;;;15.90;60.10;;;;;;6313570;22;20377;-94
2021/04/28 08:23:57;;;;;;;3.65;2.13;;;15.50;55.80;;;;;;6313152;22;20380;-94
2021/04/28 08:26:24;;;;;;;4.28;2.03;;;15.30;58.10;;;;;;6312654;22;20706;-94
2021/04/28 08:28:52;;;;;;;3.38;2.20;;;15.00;58.30;;;;;;6312319;22;22077;-94
2021/04/28 08:31:21;;;;;;;3.78;2.00;;;15.50;56.60;;;;;;6313666;22;20464;-95
2021/04/28 08:33:49;;;;;;;2.90;1.98;;;15.90;55.40;;;;;;6314207;22;20383;-95
2021/04/28 08:36:15;;;;;;;3.55;2.10;;;15.70;55.90;;;;;;6315247;22;20392;-94
2021/04/28 08:38:42;;;;;;;3.38;2.45;;;15.80;58.40;;;;;;6314044;22;20398;-95
2021/04/28 08:41:11;;;;;;;3.78;1.90;;;15.70;55.20;;;;;;6316485;22;20376;-93
2021/04/28 08:43:40;;;;;;;4.38;2.50;;;15.90;56.00;;;;;;6325456;22;20411;-95
2021/04/28 08:46:08;;;;;;;3.40;1.90;;;16.10;55.10;;;;;;6314145;22;20756;-94
2021/04/28 08:48:42;;;;;;;2.45;2.00;;;16.70;54.30;;;;;;6317853;22;20415;-96
2021/04/28 08:51:14;;;;;;;3.03;2.00;;;17.40;51.20;;;;;;6325284;22;20373;-95
2021/04/28 08:53:42;;;;;;;3.35;2.00;;;17.50;51.00;;;;;;6300273;22;20381;-95
2021/04/28 08:56:12;;;;;;;2.72;2.05;;;16.90;52.40;;;;;;6296715;22;20372;-95
2021/04/28 08:58:39;;;;;;;4.40;2.30;;;18.10;51.10;;;;;;6301165;22;20364;-94
2021/04/28 09:01:28;;;;;;;4.50;2.20;;;18.50;49.40;;;;;;6324352;22;20368;-96
2021/04/28 09:04:18;;;;;;;3.47;2.10;;;18.60;50.40;;;;;;6326162;22;20686;-96
2021/04/28 09:06:51;;;;;;;4.47;2.40;;;18.70;48.90;;;;;;6324441;22;20381;-95
2021/04/28 09:09:26;;;;;;;4.60;2.10;;;19.30;49.60;;;;;;6296235;22;20416;-96
2021/04/28 09:11:59;;;;;;;2.97;2.10;;;20.20;47.20;;;;;;6324773;22;20412;-93
2021/04/28 09:18:08;;;;;;;3.17;2.00;;;20.60;46.40;;;;;;6314015;22;20489;-92
2021/04/28 09:21:43;;;;;;;2.05;1.80;;;19.80;45.60;;;;;;6301077;22;20391;-95
2021/04/28 09:24:24;;;;;;;3.00;1.92;;;19.10;46.40;;;;;;6119433;23;20377;-95
2021/04/28 09:27:42;;;;;;;2.75;2.00;;;18.00;49.90;;;;;;6119007;23;20381;-94
2021/04/28 09:31:14;;;;;;;3.40;2.15;;;18.20;49.30;;;;;;6102300;23;20391;-94
2021/04/28 09:34:07;;;;;;;5.18;2.25;;;17.40;48.60;;;;;;6122419;23;20473;-96
2021/04/28 09:37:04;;;;;;;3.07;2.10;;;17.30;50.00;;;;;;6102230;23;20475;-94
2021/04/28 09:40:05;;;;;;;3.75;2.00;;;18.20;49.30;;;;;;6151044;23;20427;-94
2021/04/28 09:42:57;;;;;;;4.40;2.20;;;18.20;48.90;;;;;;6141518;23;20398;-93
2021/04/28 09:45:56;;;;;;;3.90;1.80;;;18.50;46.50;;;;;;6104817;23;20432;-95
2021/04/28 09:49:06;;;;;;;3.95;2.10;;;18.20;48.70;;;;;;6124366;23;20436;-93
2021/04/28 09:52:07;;;;;;;3.00;2.10;;;17.40;48.70;;;;;;6086597;23;20425;-92
2021/04/28 09:55:20;;;;;;;6.97;2.38;;;17.40;48.60;;;;;;6175620;22;20460;-96
2021/04/28 09:58:50;;;;;;;4.13;2.37;;;17.60;52.20;;;;;;6274405;22;20467;-96
2021/04/28 10:45:22;;;;;;;3.92;2.30;;;18.20;50.30;;;;;;6286415;22;20502;-96
2021/04/28 10:48:23;;;;;;;5.82;2.67;;;18.40;51.60;;;;;;6321049;22;20385;-96
2021/04/28 10:58:48;;;;;;;7.75;2.80;;;18.70;52.00;;;;;;6249069;23;20452;-95
2021/04/28 11:01:20;;;;;;;5.70;2.65;;;17.90;53.50;;;;;;6223683;23;20688;-95
2021/04/28 11:03:49;;;;;;;4.82;2.90;;;18.20;51.80;;;;;;6223589;23;20564;-95
2021/04/28 11:06:25;;;;;;;7.32;2.63;;;18.20;50.10;;;;;;6222157;23;20385;-96
2021/04/28 11:09:18;;;;;;;4.22;2.95;;;18.60;51.50;;;;;;6221764;23;20885;-95
2021/04/28 11:11:51;;;;;;;4.65;2.60;;;18.00;51.20;;;;;;6133039;23;20398;-95
2021/04/28 11:14:19;;;;;;;4.22;2.70;;;17.70;49.40;;;;;;6132011;23;20410;-95
2021/04/28 11:17:22;;;;;;;5.47;2.60;;;17.70;49.80;;;;;;6135088;23;20406;-95
2021/04/28 11:19:55;;;;;;;3.65;2.70;;;17.80;50.10;;;;;;6134583;23;20860;-96
2021/04/28 11:26:34;;;;;;;6.35;3.15;;;18.20;48.80;;;;;;6150222;23;20430;-95
2021/04/28 11:29:07;;;;;;;6.13;3.50;;;17.90;54.00;;;;;;6132451;23;20391;-95
2021/04/28 11:31:43;;;;;;;6.20;3.08;;;17.60;51.90;;;;;;6130835;23;20381;-95
2021/04/28 11:34:19;;;;;;;4.80;3.00;;;18.10;53.70;;;;;;6155996;23;20406;-95
2021/04/28 11:37:12;;;;;;;4.90;3.33;;;18.70;50.80;;;;;;6138214;23;20769;-96
2021/04/28 11:39:44;;;;;;;7.07;3.17;;;18.40;49.80;;;;;;6164855;23;20461;-96
2021/04/28 11:42:16;;;;;;;5.40;2.97;;;18.10;50.10;;;;;;6219134;23;20438;-96
2021/04/28 11:44:50;;;;;;;5.97;2.90;;;18.80;54.60;;;;;;6194736;23;20388;-96
2021/04/28 12:09:52;;;;;;;4.93;3.30;;;19.40;46.90;;;;;;6325635;22;20400;-96
2021/04/28 14:09:08;;;;;;;6.50;2.55;;;23.20;40.30;;;;;;6274702;22;20383;31
2021/04/28 14:11:36;;;;;;;6.70;2.90;;;23.90;40.40;;;;;;6169625;23;20389;-91
2021/04/28 14:14:06;;;;;;;4.00;2.40;;;23.30;38.50;;;;;;6228239;23;20377;-96
2021/04/28 14:35:34;;;;;;;5.88;2.60;;;23.20;41.60;;;;;;6327138;22;20392;-93
2021/04/28 14:48:19;;;;;;;4.05;2.13;;;23.80;36.30;;;;;;6342538;22;20824;-92
2021/04/28 14:50:47;;;;;;;5.75;2.67;;;23.20;37.20;;;;;;6316559;22;20404;-91
2021/04/28 14:53:16;;;;;;;7.22;2.60;;;22.80;38.90;;;;;;6317207;22;20391;-92
2021/04/28 14:55:44;;;;;;;3.88;2.30;;;23.10;38.90;;;;;;6314550;22;20391;-93
2021/04/28 14:58:11;;;;;;;8.05;2.53;;;23.30;37.00;;;;;;6312633;22;20779;-94
2021/04/28 15:00:38;;;;;;;5.70;2.17;;;23.50;38.80;;;;;;6311563;22;20383;-93
2021/04/28 15:03:05;;;;;;;6.50;2.38;;;23.70;36.50;;;;;;6311550;22;20770;-93
2021/04/28 15:05:32;;;;;;;5.90;2.50;;;23.60;34.60;;;;;;6311180;22;20468;-94
2021/04/28 15:07:59;;;;;;;5.93;2.87;;;23.50;36.00;;;;;;6311340;22;20387;-93
2021/04/28 15:10:27;;;;;;;4.80;2.77;;;23.60;37.70;;;;;;6312356;22;20404;-92
2021/04/28 15:12:54;;;;;;;3.90;2.47;;;24.10;36.50;;;;;;6311907;22;20472;-94
2021/04/28 15:27:23;;;;;;;7.10;2.60;;;23.40;36.80;;;;;;6321995;22;20416;-93
2021/04/28 15:29:49;;;;;;;4.25;2.58;;;23.10;38.00;;;;;;6312123;22;20365;-93
2021/04/28 15:32:16;;;;;;;4.15;2.22;;;22.90;38.00;;;;;;6311298;22;20396;-93
2021/04/28 15:34:46;;;;;;;3.80;2.20;;;22.90;40.80;;;;;;6312078;22;20457;-94
2021/04/28 15:37:12;;;;;;;4.22;2.10;;;23.00;39.10;;;;;;6311102;22;20385;-94
2021/04/28 15:39:39;;;;;;;6.50;2.40;;;23.50;38.00;;;;;;6311657;22;20460;-93
2021/04/28 15:42:07;;;;;;;4.18;2.20;;;23.80;36.60;;;;;;6311994;22;20389;-94
2021/04/28 15:44:34;;;;;;;7.65;2.22;;;24.10;36.90;;;;;;6312397;22;20388;-94
2021/04/28 15:59:01;;;;;;;6.30;2.00;;;23.40;34.80;;;;;;6338181;22;20376;-95
2021/04/28 16:01:28;;;;;;;6.20;2.00;;;23.00;39.70;;;;;;6312309;22;20377;-95
2021/04/28 16:03:56;;;;;;;4.03;1.85;;;23.10;37.20;;;;;;6311658;22;20434;-94
2021/04/28 16:06:23;;;;;;;5.47;2.28;;;23.40;37.10;;;;;;6311568;22;20752;-94
2021/04/28 16:08:53;;;;;;;4.65;2.28;;;23.30;35.80;;;;;;6312753;22;20411;-94
2021/04/28 16:11:19;;;;;;;5.93;2.33;;;23.00;36.10;;;;;;6313630;22;20473;-94
2021/04/28 16:13:46;;;;;;;4.30;2.20;;;22.30;38.20;;;;;;6321983;22;20376;-92
2021/04/28 16:16:12;;;;;;;4.10;2.58;;;21.90;36.80;;;;;;6314795;22;20380;-94
2021/04/28 16:18:39;;;;;;;6.13;2.13;;;21.70;38.50;;;;;;6310732;22;20392;-94
2021/04/28 16:21:06;;;;;;;6.32;2.40;;;21.70;38.50;;;;;;6310688;22;20475;-95
2021/04/28 17:17:52;;;;;;;7.80;2.00;;;20.60;44.30;;;;;;6305540;22;20391;-96
2021/04/28 21:04:21;;;;;;;5.95;3.60;;;9.60;99.90;;;;;;6346382;22;20381;-96
